»·PEaware :: FJS1399 KGYR-KTUS

FJS1399 :: KGYR-KTUS

FLIGHT INFORMATION

Flight Status: Arrived
Operator: Unknown
More flights by this operator :: More flights under this callsign
Pilot: David C. (16084)
Aircraft: ECLIPSE 500
(EA50)
More flights by this aircraft type
Origin: KGYR Phoenix Goodyear
United States
Destination: KTUS Tucson Intl
United States
More flights between these airports :: More routes between these airports
Route: TFD DINGO5
File this flight plan on PilotEdge
Remarks:
Altitude:
(Current/Filed)
21,000ft
Speed:
(Current/Filed)
356kts
Departed: 16-Jul-18 03:55 PM
Arrived: 16-Jul-18 04:27 PM
Distance/Time
Traveled:
106nm/0:32
Distance/Time
To Go:
Arrived

Flight Plot

Page will automatically refresh every two minutes.

Flight plan parsing failed; only flown route is shown


Map Options




Map Legend


Flown Route
Filed Route
Departure Airport
Arrival Airport
Navaid (VOR, NDB)
Fix

Horizontal Profiles

Position Reports

Time Latitude Longitude Heading Altitude Ground
Speed
16-Jul-18 15:25 33.426080 -112.368196 41 972ft 0kts
16-Jul-18 15:26 33.426080 -112.368196 41 972ft 0kts
16-Jul-18 15:27 33.426080 -112.368196 41 972ft 0kts
16-Jul-18 15:28 33.426080 -112.368196 41 972ft 0kts
16-Jul-18 15:29 33.426080 -112.368196 41 972ft 0kts
16-Jul-18 15:30 33.426080 -112.368196 41 972ft 0kts
16-Jul-18 15:31 33.426080 -112.368196 41 972ft 0kts
16-Jul-18 15:32 33.426080 -112.368196 41 972ft 0kts
16-Jul-18 15:33 33.426080 -112.368196 41 972ft 0kts
16-Jul-18 15:34 33.426080 -112.368196 41 972ft 0kts
16-Jul-18 15:35 33.426080 -112.368196 41 972ft 0kts
16-Jul-18 15:36 33.426080 -112.368196 41 972ft 0kts
16-Jul-18 15:37 33.426080 -112.368196 41 972ft 0kts
16-Jul-18 15:38 33.426080 -112.368196 41 972ft 0kts
16-Jul-18 15:39 33.426080 -112.368196 41 972ft 0kts
16-Jul-18 15:40 33.426080 -112.368196 41 972ft 0kts
16-Jul-18 15:41 33.426080 -112.368196 41 972ft 0kts
16-Jul-18 15:42 33.426080 -112.368196 41 972ft 0kts
16-Jul-18 15:43 33.426080 -112.368196 41 972ft 0kts
16-Jul-18 15:44 33.426080 -112.368196 41 972ft 0kts
16-Jul-18 15:45 33.426080 -112.368196 41 972ft 0kts
16-Jul-18 15:46 33.426080 -112.368196 41 972ft 0kts
16-Jul-18 15:47 33.426080 -112.368196 41 972ft 0kts
16-Jul-18 15:48 33.426080 -112.368196 41 972ft 0kts
16-Jul-18 15:49 33.426938 -112.368537 304 972ft 11kts
16-Jul-18 15:50 33.430454 -112.366077 41 972ft 23kts
16-Jul-18 15:51 33.431531 -112.365558 307 972ft 0kts
16-Jul-18 15:52 33.431531 -112.365558 307 972ft 0kts
16-Jul-18 15:53 33.431531 -112.365558 307 972ft 0kts
16-Jul-18 15:54 33.431531 -112.365558 307 972ft 0kts
16-Jul-18 15:55 33.431531 -112.365558 307 972ft 0kts
16-Jul-18 15:56 33.429642 -112.368599 220 972ft 65kts
16-Jul-18 15:57 33.401084 -112.395924 219 2022ft 182kts
16-Jul-18 15:58 33.360550 -112.437169 220 3973ft 237kts
16-Jul-18 15:59 33.305479 -112.493507 220 5013ft 279kts
16-Jul-18 16:00 33.244194 -112.532215 159 7488ft 274kts
16-Jul-18 16:01 33.205098 -112.467120 119 9913ft 264kts
16-Jul-18 16:02 33.171494 -112.403424 122 12192ft 253kts
16-Jul-18 16:03 33.137842 -112.343128 123 14502ft 237kts
16-Jul-18 16:04 33.106770 -112.288674 123 16567ft 223kts
16-Jul-18 16:05 33.075078 -112.233640 123 18213ft 226kts
16-Jul-18 16:06 33.040738 -112.174304 123 19810ft 230kts
16-Jul-18 16:07 33.004003 -112.111003 123 20929ft 253kts
16-Jul-18 16:08 32.959701 -112.034791 124 20946ft 307kts
16-Jul-18 16:09 32.908270 -111.946572 124 20945ft 340kts
16-Jul-18 16:10 32.838187 -111.870356 143 20944ft 359kts
16-Jul-18 16:11 32.755555 -111.800960 144 20842ft 373kts
16-Jul-18 16:12 32.675654 -111.734969 144 19153ft 319kts
16-Jul-18 16:13 32.604156 -111.675890 144 17046ft 307kts
16-Jul-18 16:14 32.542529 -111.617660 127 14933ft 279kts
16-Jul-18 16:15 32.497426 -111.546923 126 13933ft 264kts
16-Jul-18 16:16 32.452265 -111.475541 126 13912ft 274kts
16-Jul-18 16:17 32.409713 -111.400475 109 11901ft 257kts
16-Jul-18 16:18 32.387324 -111.326913 109 9911ft 233kts
16-Jul-18 16:19 32.365015 -111.256263 109 7906ft 228kts
16-Jul-18 16:20 32.333039 -111.194196 133 6031ft 219kts
16-Jul-18 16:21 32.296579 -111.151374 133 5942ft 187kts
16-Jul-18 16:22 32.258166 -111.106216 134 5947ft 207kts
16-Jul-18 16:23 32.219978 -111.061339 133 5330ft 204kts
16-Jul-18 16:24 32.187204 -111.022744 134 4429ft 146kts
16-Jul-18 16:25 32.166111 -110.998042 133 3839ft 105kts
16-Jul-18 16:26 32.143865 -110.971901 133 3242ft 122kts
16-Jul-18 16:27 32.121957 -110.946199 133 2655ft 107kts
16-Jul-18 16:28 32.111703 -110.933855 115 2646ft 21kts
16-Jul-18 16:29 32.111803 -110.932202 11 2646ft 10kts
16-Jul-18 16:30 32.116912 -110.937879 315 2646ft 36kts
16-Jul-18 16:31 32.122529 -110.943359 40 2646ft 12kts

Navigation Log

Ident Type
Flight plan parsing failed, navigation log unavailable